createdAt,value
2019-01-30T00:00:18.498Z,99.90
2019-01-30T00:02:46.736Z,99.90
2019-01-30T00:05:15.024Z,99.90
2019-01-30T00:07:43.283Z,99.90
2019-01-30T00:10:12.463Z,99.90
2019-01-30T00:12:40.741Z,99.90
2019-01-30T00:15:09.682Z,99.90
2019-01-30T00:17:37.943Z,99.90
2019-01-30T00:20:09.608Z,99.90
2019-01-30T00:22:37.872Z,99.90
2019-01-30T00:25:08.675Z,99.90
2019-01-30T00:27:36.951Z,99.90
2019-01-30T00:30:17.080Z,99.90
2019-01-30T00:32:45.327Z,99.90
2019-01-30T00:35:13.667Z,99.90
2019-01-30T00:37:42.683Z,99.90
2019-01-30T00:40:15.818Z,99.90
2019-01-30T00:42:44.102Z,99.90
2019-01-30T00:45:14.853Z,99.90
2019-01-30T00:47:43.118Z,99.90
2019-01-30T00:50:14.260Z,99.90
2019-01-30T00:52:42.672Z,99.90
2019-01-30T00:55:11.862Z,99.90
2019-01-30T00:57:40.131Z,99.90
2019-01-30T01:00:17.024Z,99.90
2019-01-30T01:02:45.595Z,99.90
2019-01-30T01:05:14.025Z,99.90
2019-01-30T01:07:42.985Z,99.90
2019-01-30T01:10:18.259Z,99.90
2019-01-30T01:12:56.475Z,99.90
2019-01-30T01:15:28.369Z,99.90
2019-01-30T01:18:07.677Z,99.90
2019-01-30T01:20:59.457Z,99.90
2019-01-30T01:23:46.802Z,99.90
2019-01-30T01:26:39.405Z,99.90
2019-01-30T01:29:16.846Z,99.90
2019-01-30T01:31:50.336Z,99.90
2019-01-30T01:34:42.122Z,99.90
2019-01-30T01:37:16.207Z,99.90
2019-01-30T01:39:55.975Z,99.90
2019-01-30T01:42:47.612Z,99.90
2019-01-30T01:45:32.672Z,99.90
2019-01-30T01:48:06.667Z,99.90
2019-01-30T01:51:01.059Z,99.90
2019-01-30T01:53:35.575Z,99.90
2019-01-30T01:56:03.857Z,99.90
2019-01-30T01:58:32.111Z,99.90
2019-01-30T02:01:00.415Z,99.90
2019-01-30T02:03:28.740Z,99.90
2019-01-30T02:05:57.104Z,99.90
2019-01-30T02:08:25.364Z,99.90
2019-01-30T02:10:53.647Z,99.90
2019-01-30T02:13:21.964Z,99.90
2019-01-30T02:15:50.243Z,99.90
2019-01-30T02:18:18.520Z,99.90
2019-01-30T02:20:46.783Z,99.90
2019-01-30T02:23:15.062Z,99.90
2019-01-30T02:25:43.468Z,99.90
2019-01-30T02:28:12.897Z,99.90
2019-01-30T02:30:47.644Z,99.90
2019-01-30T02:33:11.210Z,99.90
2019-01-30T02:35:39.473Z,99.90
2019-01-30T02:38:07.726Z,99.90
2019-01-30T02:40:36.285Z,99.90
2019-01-30T02:43:06.079Z,99.90
2019-01-30T02:45:34.616Z,99.90
2019-01-30T02:48:03.175Z,99.90
2019-01-30T02:50:34.899Z,99.90
2019-01-30T02:53:02.046Z,99.90
2019-01-30T02:55:30.557Z,99.90
2019-01-30T02:57:59.264Z,99.90
2019-01-30T03:00:29.740Z,99.90
2019-01-30T03:02:58.335Z,99.90
2019-01-30T03:05:27.169Z,99.90
2019-01-30T03:07:58.905Z,99.90
2019-01-30T03:10:27.482Z,99.90
2019-01-30T03:12:56.056Z,99.90
2019-01-30T03:15:24.754Z,99.90
2019-01-30T03:17:53.428Z,99.90
2019-01-30T03:20:24.574Z,99.90
2019-01-30T03:22:53.129Z,99.90
2019-01-30T03:25:23.069Z,99.90
2019-01-30T03:27:51.706Z,99.90
2019-01-30T03:30:23.018Z,99.90
2019-01-30T03:32:51.621Z,99.90
2019-01-30T03:35:20.074Z,99.90
2019-01-30T03:37:48.656Z,99.90
2019-01-30T03:40:18.791Z,99.90
2019-01-30T03:42:47.330Z,99.90
2019-01-30T03:45:21.149Z,99.90
2019-01-30T03:47:50.035Z,99.90
2019-01-30T03:50:18.525Z,99.90
2019-01-30T03:52:48.183Z,99.90
2019-01-30T03:55:20.576Z,99.90
2019-01-30T03:57:49.448Z,99.90
2019-01-30T04:00:24.832Z,99.90
2019-01-30T04:02:53.616Z,99.90
2019-01-30T04:05:22.141Z,99.90
2019-01-30T04:07:50.830Z,99.90
2019-01-30T04:10:21.832Z,99.90
2019-01-30T04:12:50.155Z,99.90
2019-01-30T04:15:18.415Z,99.90
2019-01-30T04:17:46.688Z,99.90
2019-01-30T04:20:17.952Z,99.90
2019-01-30T04:22:46.230Z,99.90
2019-01-30T04:25:14.484Z,99.90
2019-01-30T04:27:43.211Z,99.90
2019-01-30T04:30:16.802Z,99.90
2019-01-30T04:32:45.085Z,99.90
2019-01-30T04:35:13.345Z,99.90
2019-01-30T04:37:41.612Z,99.90
2019-01-30T04:40:15.068Z,99.90
2019-01-30T04:42:43.349Z,99.90
2019-01-30T04:45:14.698Z,99.90
2019-01-30T04:47:43.255Z,99.90
2019-01-30T04:50:11.525Z,99.90
2019-01-30T04:52:39.803Z,99.90
2019-01-30T04:55:09.028Z,99.90
2019-01-30T04:57:37.300Z,99.90
2019-01-30T05:00:11.664Z,99.90
2019-01-30T05:02:39.939Z,99.90
2019-01-30T05:05:10.170Z,99.90
2019-01-30T05:07:38.434Z,99.90
2019-01-30T05:10:09.443Z,99.90
2019-01-30T05:12:37.689Z,99.90
2019-01-30T05:15:09.211Z,99.90
2019-01-30T05:17:37.464Z,99.90
2019-01-30T05:20:09.784Z,99.90
2019-01-30T05:22:38.270Z,99.90
2019-01-30T05:25:08.345Z,99.90
2019-01-30T05:27:36.607Z,99.90
2019-01-30T05:30:08.215Z,99.90
2019-01-30T05:32:36.485Z,99.90
2019-01-30T05:35:06.127Z,99.90
2019-01-30T05:37:34.391Z,99.90
2019-01-30T05:40:02.675Z,99.90
2019-01-30T05:42:30.931Z,99.90
2019-01-30T05:44:59.226Z,99.90
2019-01-30T05:47:27.487Z,99.90
2019-01-30T05:49:55.749Z,99.90
2019-01-30T05:52:24.050Z,99.90
2019-01-30T05:54:52.375Z,99.90
2019-01-30T05:57:20.693Z,99.90
2019-01-30T05:59:48.958Z,99.90
2019-01-30T06:02:17.294Z,99.90
2019-01-30T06:04:45.591Z,99.90
2019-01-30T06:07:13.868Z,99.90
2019-01-30T06:09:42.143Z,99.90
2019-01-30T06:12:10.410Z,99.90
2019-01-30T06:14:38.687Z,99.90
2019-01-30T06:17:06.950Z,99.90
2019-01-30T06:19:35.283Z,99.90
2019-01-30T06:22:03.537Z,99.90
2019-01-30T06:24:31.796Z,99.90
2019-01-30T06:27:00.092Z,99.90
2019-01-30T06:29:28.363Z,99.90
2019-01-30T06:31:56.635Z,99.90
2019-01-30T06:34:27.431Z,99.90
2019-01-30T06:36:55.694Z,99.90
2019-01-30T06:39:23.956Z,99.90
2019-01-30T06:41:52.239Z,99.90
2019-01-30T06:44:20.489Z,99.90
2019-01-30T06:46:48.770Z,99.90
2019-01-30T06:49:17.051Z,99.90
2019-01-30T06:51:45.328Z,99.90
2019-01-30T06:54:13.715Z,99.90
2019-01-30T06:56:41.995Z,99.90
2019-01-30T06:59:10.262Z,99.90
2019-01-30T07:01:38.538Z,99.90
2019-01-30T07:04:06.799Z,99.90
2019-01-30T07:06:35.083Z,99.90
2019-01-30T07:09:09.149Z,99.90
2019-01-30T07:11:37.435Z,99.90
2019-01-30T07:14:05.681Z,99.90
2019-01-30T07:16:34.055Z,99.90
2019-01-30T07:19:02.300Z,99.90
2019-01-30T07:21:30.627Z,99.90
2019-01-30T07:23:58.952Z,99.90
2019-01-30T07:26:27.230Z,99.90
2019-01-30T07:28:55.499Z,99.90
2019-01-30T07:31:23.778Z,99.90
2019-01-30T07:33:52.017Z,99.90
2019-01-30T07:36:20.278Z,99.90
2019-01-30T07:38:48.554Z,99.90
2019-01-30T07:41:16.815Z,98.70
2019-01-30T07:43:45.093Z,98.30
2019-01-30T07:46:13.667Z,97.60
2019-01-30T07:48:41.942Z,96.40
2019-01-30T07:51:10.225Z,96.00
2019-01-30T07:53:38.504Z,97.10
2019-01-30T07:56:06.745Z,97.20
2019-01-30T07:58:35.022Z,97.20
2019-01-30T08:01:03.278Z,98.30
2019-01-30T08:03:31.623Z,99.90
2019-01-30T08:05:59.962Z,99.90
2019-01-30T08:08:28.315Z,99.90
2019-01-30T08:10:56.580Z,99.90
2019-01-30T08:13:24.854Z,99.90
2019-01-30T08:15:53.110Z,98.90
2019-01-30T08:18:21.373Z,98.70
2019-01-30T08:20:49.638Z,99.50
2019-01-30T08:23:18.194Z,98.00
2019-01-30T08:25:46.574Z,97.70
2019-01-30T08:28:15.970Z,96.90
2019-01-30T08:30:44.726Z,96.80
2019-01-30T08:33:13.738Z,97.70
2019-01-30T08:35:41.996Z,97.00
2019-01-30T08:38:10.253Z,97.10
2019-01-30T08:40:38.505Z,97.20
2019-01-30T08:43:06.771Z,97.60
2019-01-30T08:45:35.026Z,96.60
2019-01-30T08:48:03.286Z,95.20
2019-01-30T08:50:31.545Z,94.10
2019-01-30T08:52:59.813Z,94.30
2019-01-30T08:55:28.066Z,95.90
2019-01-30T08:57:56.306Z,97.20
2019-01-30T09:00:27.187Z,96.80
2019-01-30T09:02:55.442Z,95.30
2019-01-30T09:05:23.718Z,94.30
2019-01-30T09:07:51.972Z,92.90
2019-01-30T09:10:25.687Z,93.40
2019-01-30T09:12:53.946Z,93.50
2019-01-30T09:15:24.066Z,93.00
2019-01-30T09:17:52.565Z,92.50
2019-01-30T09:20:22.471Z,94.80
2019-01-30T09:22:50.724Z,93.90
2019-01-30T09:25:20.915Z,93.30
2019-01-30T09:27:49.791Z,94.00
2019-01-30T09:30:28.551Z,93.50
2019-01-30T09:32:56.827Z,92.70
2019-01-30T09:35:25.144Z,92.80
2019-01-30T09:37:53.432Z,92.30
2019-01-30T09:40:22.178Z,94.00
2019-01-30T09:42:50.435Z,94.30
2019-01-30T09:45:19.660Z,94.20
2019-01-30T09:47:47.973Z,91.80
2019-01-30T09:50:24.611Z,92.50
2019-01-30T09:52:53.480Z,91.70
2019-01-30T09:55:21.810Z,90.20
2019-01-30T09:57:50.095Z,90.90
2019-01-30T10:00:28.937Z,89.70
2019-01-30T10:02:57.239Z,86.70
2019-01-30T10:05:25.502Z,90.00
2019-01-30T10:07:55.258Z,90.70
2019-01-30T10:10:28.698Z,91.20
2019-01-30T10:12:56.952Z,91.60
2019-01-30T10:15:30.802Z,90.20
2019-01-30T10:17:59.124Z,86.80
2019-01-30T10:20:28.956Z,83.90
2019-01-30T10:22:57.216Z,84.80
2019-01-30T10:25:25.483Z,85.20
2019-01-30T10:27:53.732Z,84.90
2019-01-30T10:30:27.375Z,81.30
2019-01-30T10:32:55.632Z,78.10
2019-01-30T10:35:23.887Z,80.60
2019-01-30T10:37:52.156Z,83.10
2019-01-30T10:40:21.367Z,82.40
2019-01-30T10:42:50.037Z,85.80
2019-01-30T10:45:18.545Z,88.10
2019-01-30T10:47:46.903Z,90.20
2019-01-30T10:50:17.940Z,83.70
2019-01-30T10:52:46.219Z,85.30
2019-01-30T10:55:19.769Z,84.00
2019-01-30T10:57:49.678Z,81.90
2019-01-30T11:00:26.658Z,82.40
2019-01-30T11:02:55.013Z,81.20
2019-01-30T11:05:23.259Z,83.10
2019-01-30T11:07:51.518Z,78.10
2019-01-30T11:10:20.807Z,73.40
2019-01-30T11:12:49.104Z,75.90
2019-01-30T11:15:20.104Z,73.60
2019-01-30T11:17:48.399Z,72.10
2019-01-30T11:20:18.490Z,76.00
2019-01-30T11:22:46.737Z,78.20
2019-01-30T11:25:17.791Z,75.70
2019-01-30T11:27:46.059Z,74.70
2019-01-30T11:30:15.951Z,70.90
2019-01-30T11:32:44.222Z,72.50
2019-01-30T11:35:12.485Z,73.40
2019-01-30T11:37:40.739Z,69.80
2019-01-30T11:40:17.382Z,72.80
2019-01-30T11:42:45.636Z,74.80
2019-01-30T11:45:19.573Z,69.20
2019-01-30T11:47:47.836Z,70.50
2019-01-30T11:50:16.831Z,71.60
2019-01-30T11:52:45.167Z,68.70
2019-01-30T11:55:15.768Z,71.20
2019-01-30T11:57:44.209Z,71.00
2019-01-30T12:00:17.008Z,69.40
2019-01-30T12:02:47.822Z,70.70
2019-01-30T12:05:16.108Z,73.40
2019-01-30T12:07:44.361Z,73.00
2019-01-30T12:10:13.740Z,77.30
2019-01-30T12:12:42.083Z,80.50
2019-01-30T12:15:13.733Z,80.60
2019-01-30T12:17:42.024Z,78.60
2019-01-30T12:20:12.137Z,75.50
2019-01-30T12:22:40.399Z,74.00
2019-01-30T12:25:11.512Z,72.70
2019-01-30T12:27:39.871Z,77.70
2019-01-30T12:30:14.271Z,75.70
2019-01-30T12:32:42.544Z,73.50
2019-01-30T12:35:10.807Z,72.40
2019-01-30T12:37:39.053Z,78.90
2019-01-30T12:40:10.592Z,77.40
2019-01-30T12:42:38.865Z,77.10
2019-01-30T12:45:15.926Z,75.70
2019-01-30T12:47:44.267Z,75.30
2019-01-30T12:50:12.528Z,78.60
2019-01-30T12:52:40.800Z,77.00
2019-01-30T12:55:10.887Z,77.70
2019-01-30T12:57:39.162Z,81.30
2019-01-30T13:00:18.781Z,78.80
2019-01-30T13:02:47.057Z,80.10
2019-01-30T13:05:15.649Z,81.00
2019-01-30T13:07:44.319Z,80.10
2019-01-30T13:10:12.572Z,78.80
2019-01-30T13:12:40.843Z,79.10
2019-01-30T13:15:14.397Z,78.20
2019-01-30T13:17:42.671Z,80.20
2019-01-30T13:20:15.875Z,79.80
2019-01-30T13:22:44.367Z,81.00
2019-01-30T13:25:13.452Z,81.50
2019-01-30T13:27:41.719Z,84.40
2019-01-30T13:30:13.261Z,81.80
2019-01-30T13:32:41.531Z,82.00
2019-01-30T13:35:09.771Z,81.00
2019-01-30T13:37:38.038Z,86.10
2019-01-30T13:40:09.611Z,87.50
2019-01-30T13:42:37.869Z,83.50
2019-01-30T13:45:09.275Z,80.70
2019-01-30T13:47:37.554Z,81.60
2019-01-30T13:50:09.098Z,79.50
2019-01-30T13:52:37.410Z,80.80
2019-01-30T13:55:07.752Z,81.30
2019-01-30T13:57:36.059Z,80.20
2019-01-30T14:00:06.608Z,80.20
2019-01-30T14:02:34.900Z,80.70
2019-01-30T14:05:03.308Z,83.40
2019-01-30T14:07:31.586Z,85.10
2019-01-30T14:09:59.911Z,84.80
2019-01-30T14:12:28.199Z,86.20
2019-01-30T14:14:56.501Z,85.10
2019-01-30T14:17:24.863Z,84.40
2019-01-30T14:19:53.167Z,87.70
2019-01-30T14:22:21.414Z,87.40
2019-01-30T14:24:49.679Z,87.80
2019-01-30T14:27:17.931Z,89.10
2019-01-30T14:29:46.274Z,90.60
2019-01-30T14:32:14.978Z,90.50
2019-01-30T14:34:43.388Z,90.30
2019-01-30T14:37:11.689Z,90.10
2019-01-30T14:39:39.988Z,88.40
2019-01-30T14:42:08.339Z,88.00
2019-01-30T14:44:36.674Z,87.80
2019-01-30T14:47:04.996Z,87.80
2019-01-30T14:49:33.361Z,90.30
2019-01-30T14:52:01.821Z,91.60
2019-01-30T14:54:30.097Z,91.00
2019-01-30T14:56:58.443Z,91.80
2019-01-30T14:59:26.721Z,92.00
2019-01-30T15:01:55.102Z,93.10
2019-01-30T15:04:23.530Z,93.10
2019-01-30T15:06:51.818Z,93.70
2019-01-30T15:09:20.159Z,94.70
2019-01-30T15:11:48.443Z,95.30
2019-01-30T15:14:16.744Z,95.40
2019-01-30T15:16:45.004Z,95.30
2019-01-30T15:19:13.311Z,95.40
2019-01-30T15:21:41.686Z,95.30
2019-01-30T15:24:10.019Z,96.00
2019-01-30T15:26:38.275Z,96.50
2019-01-30T15:29:06.520Z,96.60
2019-01-30T15:31:34.787Z,96.60
2019-01-30T15:34:03.049Z,96.80
2019-01-30T15:36:31.325Z,97.20
2019-01-30T15:38:59.579Z,97.00
2019-01-30T15:41:27.824Z,96.90
2019-01-30T15:43:56.064Z,96.80
2019-01-30T15:46:25.381Z,96.90
2019-01-30T15:48:53.639Z,96.90
2019-01-30T15:51:21.911Z,97.10
2019-01-30T15:53:50.297Z,97.00
2019-01-30T15:56:18.611Z,97.80
2019-01-30T15:58:46.871Z,98.00
2019-01-30T16:01:15.211Z,99.90
2019-01-30T16:03:43.462Z,99.00
2019-01-30T16:06:11.739Z,98.60
2019-01-30T16:08:39.995Z,98.50
2019-01-30T16:11:08.253Z,98.70
2019-01-30T16:13:36.516Z,98.80
2019-01-30T16:16:05.418Z,99.10
2019-01-30T16:18:33.691Z,98.50
2019-01-30T16:21:01.949Z,98.90
2019-01-30T16:23:30.201Z,98.90
2019-01-30T16:25:58.471Z,98.60
2019-01-30T16:28:26.759Z,98.60
2019-01-30T16:30:55.033Z,98.40
2019-01-30T16:33:23.268Z,98.60
2019-01-30T16:35:56.146Z,99.10
2019-01-30T16:38:21.479Z,99.10
2019-01-30T16:40:49.759Z,99.60
2019-01-30T16:43:18.011Z,99.30
2019-01-30T16:45:46.268Z,99.40
2019-01-30T16:48:15.025Z,99.50
2019-01-30T16:50:43.287Z,99.30
2019-01-30T16:53:11.543Z,99.50
2019-01-30T16:55:39.822Z,99.50
2019-01-30T16:58:08.089Z,99.90
2019-01-30T17:00:37.596Z,99.90
2019-01-30T17:03:07.680Z,99.90
2019-01-30T17:05:35.944Z,99.90
2019-01-30T17:08:06.096Z,99.90
2019-01-30T17:10:34.387Z,99.90
2019-01-30T17:13:02.651Z,99.90
2019-01-30T17:15:34.156Z,99.90
2019-01-30T17:18:02.678Z,99.90
2019-01-30T17:20:36.063Z,99.90
2019-01-30T17:23:04.472Z,99.90
2019-01-30T17:25:32.743Z,99.90
2019-01-30T17:28:01.007Z,99.90
2019-01-30T17:30:35.279Z,99.90
2019-01-30T17:33:03.748Z,99.90
2019-01-30T17:35:32.020Z,99.90
2019-01-30T17:38:00.312Z,99.90
2019-01-30T17:40:29.577Z,99.90
2019-01-30T17:42:57.847Z,99.90
2019-01-30T17:45:26.217Z,99.90
2019-01-30T17:47:54.548Z,99.90
2019-01-30T17:50:27.111Z,99.90
2019-01-30T17:52:55.411Z,99.90
2019-01-30T17:55:25.989Z,99.90
2019-01-30T17:57:53.717Z,99.90
2019-01-30T18:00:26.923Z,99.90
2019-01-30T18:02:55.209Z,99.90
2019-01-30T18:05:23.463Z,99.90
2019-01-30T18:07:51.752Z,99.90
2019-01-30T18:10:20.035Z,99.90
2019-01-30T18:12:48.344Z,99.90
2019-01-30T18:15:16.825Z,99.90
2019-01-30T18:17:45.182Z,99.90
2019-01-30T18:20:18.072Z,99.90
2019-01-30T18:22:46.335Z,99.90
2019-01-30T18:25:16.694Z,99.90
2019-01-30T18:27:45.263Z,99.90
2019-01-30T18:30:18.757Z,99.90
2019-01-30T18:32:47.260Z,99.90
2019-01-30T18:35:15.692Z,99.90
2019-01-30T18:37:44.109Z,99.90
2019-01-30T18:40:15.232Z,99.90
2019-01-30T18:42:43.485Z,99.90
2019-01-30T18:45:14.526Z,99.90
2019-01-30T18:47:42.866Z,99.90
2019-01-30T18:50:14.418Z,99.90
2019-01-30T18:52:42.735Z,99.90
2019-01-30T18:55:10.976Z,99.90
2019-01-30T18:57:39.249Z,99.90
2019-01-30T19:00:13.355Z,99.90
2019-01-30T19:02:41.684Z,99.90
2019-01-30T19:05:12.078Z,99.90
2019-01-30T19:07:40.351Z,99.90
2019-01-30T19:10:11.867Z,99.90
2019-01-30T19:12:40.122Z,99.90
2019-01-30T19:15:14.043Z,99.90
2019-01-30T19:17:42.359Z,99.90
2019-01-30T19:20:16.319Z,99.90
2019-01-30T19:22:45.204Z,99.90
2019-01-30T19:25:13.495Z,99.90
2019-01-30T19:27:41.819Z,99.90
2019-01-30T19:30:16.039Z,99.90
2019-01-30T19:32:45.227Z,99.90
2019-01-30T19:35:13.494Z,99.90
2019-01-30T19:37:41.747Z,99.90
2019-01-30T19:40:13.023Z,99.90
2019-01-30T19:42:41.343Z,99.90
2019-01-30T19:45:15.116Z,99.90
2019-01-30T19:47:43.375Z,99.90
2019-01-30T19:50:14.492Z,99.90
2019-01-30T19:52:42.740Z,99.90
2019-01-30T19:55:11.019Z,99.90
2019-01-30T19:57:39.278Z,99.90
2019-01-30T20:00:10.812Z,99.90
2019-01-30T20:02:39.053Z,99.90
2019-01-30T20:05:10.354Z,99.90
2019-01-30T20:07:38.679Z,99.90
2019-01-30T20:10:10.211Z,99.90
2019-01-30T20:12:38.482Z,99.90
2019-01-30T20:15:09.774Z,99.90
2019-01-30T20:17:38.128Z,99.90
2019-01-30T20:20:09.514Z,99.90
2019-01-30T20:22:37.817Z,99.90
2019-01-30T20:25:09.341Z,99.90
2019-01-30T20:27:37.627Z,99.90
2019-01-30T20:30:11.783Z,99.90
2019-01-30T20:32:40.051Z,99.90
2019-01-30T20:35:08.871Z,99.90
2019-01-30T20:37:37.707Z,99.90
2019-01-30T20:40:12.043Z,99.90
2019-01-30T20:42:40.292Z,99.90
2019-01-30T20:45:11.414Z,99.90
2019-01-30T20:47:39.720Z,99.90
2019-01-30T20:50:13.988Z,99.90
2019-01-30T20:52:42.251Z,99.90
2019-01-30T20:55:12.352Z,99.90
2019-01-30T20:57:40.626Z,99.90
2019-01-30T21:00:12.184Z,99.90
2019-01-30T21:02:40.547Z,99.90
2019-01-30T21:05:09.180Z,99.90
2019-01-30T21:07:37.669Z,99.90
2019-01-30T21:10:15.017Z,99.90
2019-01-30T21:12:43.282Z,99.90
2019-01-30T21:15:14.103Z,99.90
2019-01-30T21:17:42.364Z,99.90
2019-01-30T21:20:16.188Z,99.90
2019-01-30T21:22:45.360Z,99.90
2019-01-30T21:25:19.113Z,99.90
2019-01-30T21:27:47.612Z,99.90
2019-01-30T21:30:19.028Z,99.90
2019-01-30T21:32:47.287Z,99.90
2019-01-30T21:35:15.624Z,99.90
2019-01-30T21:37:49.145Z,99.90
2019-01-30T21:40:18.271Z,99.90
2019-01-30T21:42:47.115Z,99.90
2019-01-30T21:45:19.020Z,99.90
2019-01-30T21:47:47.276Z,99.90
2019-01-30T21:50:15.823Z,99.90
2019-01-30T21:52:44.167Z,99.90
2019-01-30T21:55:24.730Z,99.90
2019-01-30T21:57:53.014Z,99.90
2019-01-30T22:00:36.962Z,99.90
2019-01-30T22:03:05.229Z,99.90
2019-01-30T22:05:33.512Z,99.90
2019-01-30T22:08:01.800Z,99.90
2019-01-30T22:10:30.249Z,99.90
2019-01-30T22:12:58.515Z,99.90
2019-01-30T22:15:26.920Z,99.90
2019-01-30T22:17:55.269Z,99.90
2019-01-30T22:20:25.349Z,99.90
2019-01-30T22:22:53.848Z,99.90
2019-01-30T22:25:23.569Z,99.90
2019-01-30T22:27:51.981Z,99.90
2019-01-30T22:30:28.060Z,99.90
2019-01-30T22:32:56.460Z,99.90
2019-01-30T22:35:24.823Z,99.90
2019-01-30T22:37:53.366Z,99.90
2019-01-30T22:40:21.734Z,99.90
2019-01-30T22:42:50.063Z,99.90
2019-01-30T22:45:22.381Z,99.90
2019-01-30T22:47:50.743Z,99.90
2019-01-30T22:50:19.894Z,99.90
2019-01-30T22:52:48.305Z,99.90
2019-01-30T22:55:18.379Z,99.90
2019-01-30T22:57:46.737Z,99.90
2019-01-30T23:00:32.363Z,99.90
2019-01-30T23:03:00.729Z,99.90
2019-01-30T23:05:56.431Z,99.90
2019-01-30T23:08:24.911Z,99.90
2019-01-30T23:10:59.069Z,99.90
2019-01-30T23:13:33.324Z,99.90
2019-01-30T23:16:10.904Z,99.90
2019-01-30T23:18:58.808Z,99.90
2019-01-30T23:21:33.262Z,99.90
2019-01-30T23:24:28.430Z,99.90
2019-01-30T23:27:00.090Z,99.90
2019-01-30T23:29:43.781Z,99.90
2019-01-30T23:32:15.482Z,99.90
2019-01-30T23:35:18.808Z,99.90
2019-01-30T23:38:05.573Z,99.90
2019-01-30T23:40:37.178Z,99.90
2019-01-30T23:43:20.524Z,99.90
2019-01-30T23:46:14.620Z,99.90
2019-01-30T23:49:02.708Z,99.90
2019-01-30T23:51:52.183Z,99.90
2019-01-30T23:54:23.762Z,99.90
2019-01-30T23:56:58.002Z,99.90
2019-01-30T23:59:48.704Z,99.90
